Time;durP1;ratioP1;P1;durP2;ratioP2;P2;SDS_P1;SDS_P2;PMS_P1;PMS_P2;Temp;Humidity;BMP_temperature;BMP_pressure;BME280_temperature;BME280_humidity;BME280_pressure;Samples;Min_cycle;Max_cycle;Signal;HPM_P1;HPM_P2
2022/03/19 00:00:15;;;;;;;75.90;38.93;;;5.00;59.10;;;;;;5032383;28;46482;-63
2022/03/19 00:02:41;;;;;;;74.43;41.10;;;5.00;59.50;;;;;;5028690;28;45973;-64
2022/03/19 00:05:08;;;;;;;86.43;42.60;;;5.00;59.90;;;;;;5033034;28;46433;-63
2022/03/19 00:07:37;;;;;;;79.00;40.60;;;5.00;59.90;;;;;;5032500;28;46684;-63
2022/03/19 00:10:06;;;;;;;89.63;44.47;;;4.90;60.20;;;;;;5032570;28;46431;-63
2022/03/19 00:12:32;;;;;;;89.33;44.67;;;4.90;60.30;;;;;;5029556;28;46753;-64
2022/03/19 00:14:58;;;;;;;90.60;46.10;;;4.80;60.70;;;;;;5029830;28;46492;-66
2022/03/19 00:17:23;;;;;;;86.37;47.63;;;4.80;60.90;;;;;;5035393;28;46429;-65
2022/03/19 00:19:49;;;;;;;86.60;41.57;;;5.00;61.90;;;;;;5033918;28;46520;-64
2022/03/19 00:22:15;;;;;;;80.97;43.60;;;4.80;62.00;;;;;;5029638;28;45920;-63
2022/03/19 00:24:40;;;;;;;89.10;46.10;;;4.90;62.40;;;;;;5031630;28;46546;-63
2022/03/19 00:27:06;;;;;;;91.07;46.47;;;4.80;62.50;;;;;;5034217;28;46418;-62
2022/03/19 00:29:32;;;;;;;94.97;45.00;;;4.80;63.20;;;;;;5032715;28;46377;-61
2022/03/19 00:31:57;;;;;;;86.27;45.43;;;4.70;63.50;;;;;;5032076;28;45983;-63
2022/03/19 00:34:23;;;;;;;95.43;47.97;;;4.70;63.60;;;;;;5031289;28;48077;-64
2022/03/19 00:36:49;;;;;;;89.17;46.33;;;4.70;63.30;;;;;;5030730;28;46712;-64
2022/03/19 00:39:15;;;;;;;91.83;46.43;;;4.70;63.80;;;;;;5030896;28;46383;-64
2022/03/19 00:41:41;;;;;;;96.30;47.87;;;4.60;64.00;;;;;;5032413;28;46373;-63
2022/03/19 00:44:07;;;;;;;95.97;49.57;;;4.60;64.10;;;;;;5026173;28;48004;-63
2022/03/19 00:46:33;;;;;;;97.47;47.93;;;4.50;63.90;;;;;;5025400;28;46487;-63
2022/03/19 00:48:59;;;;;;;107.13;51.30;;;4.50;64.20;;;;;;5029926;28;46696;-64
2022/03/19 00:51:25;;;;;;;100.13;49.00;;;4.50;64.10;;;;;;5028730;28;46441;-63
2022/03/19 00:53:51;;;;;;;106.53;51.23;;;4.60;65.00;;;;;;5034431;28;46334;-65
2022/03/19 00:56:17;;;;;;;99.90;49.10;;;4.50;65.00;;;;;;5031705;28;46471;-63
2022/03/19 00:58:42;;;;;;;104.43;51.73;;;4.40;65.10;;;;;;5029459;28;46444;-64
2022/03/19 01:01:08;;;;;;;111.40;51.77;;;4.40;65.60;;;;;;5028791;28;46592;-62
2022/03/19 01:03:33;;;;;;;99.43;47.77;;;4.40;65.80;;;;;;5030384;28;46360;-65
2022/03/19 01:05:59;;;;;;;107.57;52.10;;;4.30;66.30;;;;;;5037715;28;46395;-63
2022/03/19 01:08:25;;;;;;;101.67;49.47;;;4.30;66.40;;;;;;5027154;28;46334;-64
2022/03/19 01:10:51;;;;;;;106.13;47.60;;;4.30;66.50;;;;;;5030108;28;47089;-64
2022/03/19 01:13:17;;;;;;;104.83;50.10;;;4.30;66.90;;;;;;5028965;28;47329;-64
2022/03/19 01:15:42;;;;;;;109.63;51.00;;;4.20;66.40;;;;;;5028667;28;46708;-64
2022/03/19 01:18:08;;;;;;;101.77;50.90;;;4.20;66.20;;;;;;5031458;28;46501;-63
2022/03/19 01:20:34;;;;;;;104.10;51.70;;;4.20;66.60;;;;;;5031447;28;46636;-63
2022/03/19 01:23:00;;;;;;;116.53;55.73;;;4.20;66.90;;;;;;5030415;28;46533;-63
2022/03/19 01:25:26;;;;;;;105.13;52.38;;;4.20;67.30;;;;;;5029607;28;46421;-64
2022/03/19 01:27:52;;;;;;;102.77;51.57;;;4.20;67.40;;;;;;5029643;28;46410;-64
2022/03/19 01:30:21;;;;;;;107.53;48.23;;;4.20;68.80;;;;;;5029256;28;46335;-64
2022/03/19 01:32:47;;;;;;;107.97;53.07;;;4.20;67.90;;;;;;5029233;28;46290;-64
2022/03/19 01:35:15;;;;;;;95.90;48.28;;;4.10;68.00;;;;;;5029926;28;46349;-64
2022/03/19 01:37:42;;;;;;;114.13;53.20;;;4.10;68.10;;;;;;5027735;28;46402;-64
2022/03/19 01:40:10;;;;;;;98.47;51.00;;;4.10;68.20;;;;;;5034689;28;46411;-63
2022/03/19 01:42:39;;;;;;;98.77;50.87;;;4.00;68.10;;;;;;5033385;28;46467;-64
2022/03/19 01:45:08;;;;;;;98.90;50.03;;;4.10;69.60;;;;;;5030229;28;46476;-63
2022/03/19 01:47:34;;;;;;;105.67;52.63;;;4.00;68.60;;;;;;5030008;28;46336;-63
2022/03/19 01:49:59;;;;;;;107.40;51.50;;;4.00;68.70;;;;;;5036299;28;46303;-64
2022/03/19 01:52:25;;;;;;;100.17;50.63;;;3.90;68.70;;;;;;5030581;28;46015;-65
2022/03/19 01:54:52;;;;;;;97.78;51.45;;;3.90;69.20;;;;;;5031578;28;46419;-65
2022/03/19 01:57:21;;;;;;;108.32;50.38;;;3.90;69.20;;;;;;5030435;28;46387;-65
2022/03/19 01:59:48;;;;;;;95.77;47.23;;;3.90;69.40;;;;;;5028526;28;46462;-64
2022/03/19 02:02:14;;;;;;;97.43;51.67;;;3.90;69.70;;;;;;5030578;28;47267;-64
2022/03/19 02:04:41;;;;;;;110.33;52.63;;;3.80;69.60;;;;;;5034258;28;46475;-65
2022/03/19 02:07:11;;;;;;;108.37;51.63;;;3.80;69.90;;;;;;5026876;28;45957;-64
2022/03/19 02:09:38;;;;;;;108.83;50.33;;;3.80;70.30;;;;;;5029700;28;45917;-63
2022/03/19 02:12:06;;;;;;;99.10;47.90;;;3.70;70.50;;;;;;5028019;28;46379;-65
2022/03/19 02:14:35;;;;;;;107.35;53.33;;;3.70;70.50;;;;;;5027625;28;46315;-64
2022/03/19 02:17:02;;;;;;;111.43;52.87;;;3.70;70.30;;;;;;5026537;28;46447;-63
2022/03/19 02:19:28;;;;;;;107.57;52.90;;;3.60;70.10;;;;;;5025830;28;46397;-64
2022/03/19 02:21:54;;;;;;;103.33;50.13;;;3.60;70.20;;;;;;5030031;28;47046;-63
2022/03/19 02:27:04;;;;;;;96.57;50.17;;;3.50;70.50;;;;;;5034064;28;46482;-64
2022/03/19 02:29:30;;;;;;;103.03;49.23;;;3.50;70.80;;;;;;5027310;28;46448;-63
2022/03/19 02:32:03;;;;;;;98.13;50.10;;;3.50;70.70;;;;;;5030206;28;46450;-64
2022/03/19 02:34:29;;;;;;;102.47;48.70;;;3.40;70.40;;;;;;5030673;28;46515;-64
2022/03/19 02:36:55;;;;;;;100.00;48.70;;;3.40;70.70;;;;;;5026405;28;46234;-64
2022/03/19 02:39:30;;;;;;;92.40;46.63;;;3.40;70.70;;;;;;5026125;28;46598;-64
2022/03/19 02:41:58;;;;;;;93.80;42.47;;;3.40;70.70;;;;;;5024749;28;47212;-64
2022/03/19 02:44:23;;;;;;;85.57;40.88;;;3.30;70.60;;;;;;5025757;28;46312;-63
2022/03/19 02:46:53;;;;;;;87.67;44.57;;;3.30;70.50;;;;;;5021237;28;46335;-62
2022/03/19 02:49:20;;;;;;;84.67;41.73;;;3.30;70.40;;;;;;5035732;28;46311;-63
2022/03/19 02:51:49;;;;;;;87.63;41.00;;;3.30;70.60;;;;;;5029339;28;46295;-65
2022/03/19 02:54:17;;;;;;;80.03;42.78;;;3.30;70.50;;;;;;5029798;28;46555;-64
2022/03/19 02:56:44;;;;;;;81.60;40.80;;;3.30;70.30;;;;;;5031876;28;46371;-64
2022/03/19 02:59:20;;;;;;;92.07;43.40;;;3.20;70.10;;;;;;5031719;28;46606;-63
2022/03/19 03:01:47;;;;;;;88.00;44.67;;;3.20;70.00;;;;;;5026241;28;46461;-62
2022/03/19 03:04:13;;;;;;;88.82;40.72;;;3.20;70.00;;;;;;5028002;28;46440;-63
2022/03/19 03:06:44;;;;;;;83.87;41.60;;;3.20;70.00;;;;;;5029427;28;46392;-63
2022/03/19 03:09:11;;;;;;;86.20;41.27;;;3.20;69.90;;;;;;5023300;28;46690;-62
2022/03/19 03:11:38;;;;;;;82.38;40.03;;;3.20;69.80;;;;;;5029277;28;47086;-64
2022/03/19 03:14:04;;;;;;;80.70;40.63;;;3.10;69.80;;;;;;5030765;28;46357;-64
2022/03/19 03:16:31;;;;;;;82.55;39.15;;;3.10;69.70;;;;;;5034591;28;46573;-62
2022/03/19 03:19:00;;;;;;;77.03;38.17;;;3.10;69.60;;;;;;5035815;28;46821;-64
2022/03/19 03:21:27;;;;;;;78.63;39.43;;;3.10;69.50;;;;;;5032866;28;46292;-62
2022/03/19 03:23:54;;;;;;;77.57;37.90;;;3.00;69.30;;;;;;5029047;28;46367;-64
2022/03/19 03:26:19;;;;;;;86.95;41.90;;;3.00;69.20;;;;;;5029803;28;46353;-63
2022/03/19 03:28:45;;;;;;;71.97;38.20;;;3.00;69.00;;;;;;5034987;28;46460;-64
2022/03/19 03:31:11;;;;;;;75.93;36.67;;;3.00;69.10;;;;;;5033937;28;46418;-62
2022/03/19 03:33:36;;;;;;;72.90;36.63;;;3.00;69.10;;;;;;5029629;28;46397;-63
2022/03/19 03:36:02;;;;;;;72.43;36.27;;;2.90;68.90;;;;;;5034584;28;46426;-63
2022/03/19 03:38:28;;;;;;;71.10;40.07;;;2.90;68.80;;;;;;5035437;28;46554;-63
2022/03/19 03:40:53;;;;;;;70.37;35.40;;;2.90;68.70;;;;;;5031499;28;47240;-64
2022/03/19 03:43:19;;;;;;;66.93;34.80;;;2.90;68.60;;;;;;5030196;28;46573;-63
2022/03/19 03:45:45;;;;;;;73.07;34.33;;;2.80;68.40;;;;;;5029894;28;45901;-63
2022/03/19 03:48:10;;;;;;;70.30;35.00;;;2.80;68.40;;;;;;5027721;28;46510;-65
2022/03/19 03:50:37;;;;;;;64.13;34.33;;;2.80;68.30;;;;;;5030949;28;46278;-64
2022/03/19 03:53:04;;;;;;;76.63;35.58;;;2.70;68.30;;;;;;5026468;28;46382;-63
2022/03/19 03:55:31;;;;;;;67.75;33.42;;;2.70;68.20;;;;;;5034989;28;46425;-62
2022/03/19 03:57:57;;;;;;;74.28;35.50;;;2.70;68.10;;;;;;5032843;28;46389;-63
2022/03/19 04:00:23;;;;;;;72.87;34.80;;;2.60;68.00;;;;;;5031072;28;46465;-64
2022/03/19 04:02:48;;;;;;;70.20;33.03;;;2.60;68.10;;;;;;5032704;28;46292;-62
2022/03/19 04:05:14;;;;;;;63.27;31.70;;;2.60;68.00;;;;;;5035109;28;46398;-63
2022/03/19 04:07:40;;;;;;;72.50;34.50;;;2.60;68.00;;;;;;5031283;28;46458;-64
2022/03/19 04:10:06;;;;;;;64.30;33.10;;;2.60;67.90;;;;;;5030800;28;46380;-63
2022/03/19 04:12:31;;;;;;;62.83;31.55;;;2.50;67.70;;;;;;5029696;28;46520;-63
2022/03/19 04:14:57;;;;;;;71.27;32.60;;;2.50;67.70;;;;;;5030535;28;46354;-62
2022/03/19 04:17:23;;;;;;;67.37;33.50;;;2.50;67.60;;;;;;5029735;28;46431;-62
2022/03/19 04:19:48;;;;;;;60.50;30.70;;;2.40;67.70;;;;;;5029701;28;46990;-64
2022/03/19 04:22:14;;;;;;;66.33;32.37;;;2.40;67.50;;;;;;5029249;28;46584;-64
2022/03/19 04:24:39;;;;;;;67.10;35.10;;;2.40;67.50;;;;;;5030146;28;46374;-64
2022/03/19 04:27:05;;;;;;;64.53;32.17;;;2.30;67.40;;;;;;5034931;28;46334;-65
2022/03/19 04:29:30;;;;;;;60.40;32.77;;;2.40;67.60;;;;;;5033645;28;46368;-64
2022/03/19 04:31:57;;;;;;;69.83;31.10;;;2.30;67.30;;;;;;5032963;28;46783;-64
2022/03/19 04:34:23;;;;;;;63.97;30.50;;;2.30;67.30;;;;;;5029963;28;46474;-63
2022/03/19 04:36:49;;;;;;;66.87;32.70;;;2.30;67.30;;;;;;5032618;28;46489;-63
2022/03/19 04:39:14;;;;;;;65.73;32.17;;;2.20;67.30;;;;;;5027772;28;47056;-65
2022/03/19 04:41:41;;;;;;;64.13;30.93;;;2.20;67.40;;;;;;5035954;28;46337;-64
2022/03/19 04:44:07;;;;;;;59.83;29.95;;;2.20;67.30;;;;;;5031423;28;46367;-64
2022/03/19 04:46:34;;;;;;;68.72;32.67;;;2.10;67.10;;;;;;5029506;28;46529;-63
2022/03/19 04:48:59;;;;;;;64.70;32.60;;;2.10;67.10;;;;;;5032851;28;46459;-63
2022/03/19 04:51:33;;;;;;;62.87;32.37;;;2.10;67.10;;;;;;5030495;28;46462;-64
2022/03/19 04:54:00;;;;;;;60.63;30.92;;;2.00;66.80;;;;;;5027471;28;45861;-63
2022/03/19 04:56:27;;;;;;;63.47;29.88;;;2.00;66.90;;;;;;5024249;28;46461;-63
2022/03/19 04:58:56;;;;;;;56.05;30.23;;;2.00;66.90;;;;;;5025154;28;46311;-64
2022/03/19 05:01:25;;;;;;;64.75;29.77;;;1.90;66.70;;;;;;5022367;28;46699;-63
2022/03/19 05:03:51;;;;;;;56.97;29.73;;;1.90;66.60;;;;;;5028585;28;46429;-64
2022/03/19 05:06:16;;;;;;;59.70;29.73;;;1.90;66.60;;;;;;5030826;28;47126;-64
2022/03/19 05:08:42;;;;;;;51.70;26.80;;;1.90;66.50;;;;;;5030701;28;46478;-65
2022/03/19 05:11:14;;;;;;;60.20;28.17;;;1.80;66.40;;;;;;5036793;28;46533;-62
2022/03/19 05:13:48;;;;;;;57.13;29.00;;;1.80;66.20;;;;;;5027093;28;46438;-63
2022/03/19 05:16:14;;;;;;;54.05;27.20;;;1.80;66.20;;;;;;5026986;28;46259;-62
2022/03/19 05:18:40;;;;;;;49.13;26.40;;;1.80;66.10;;;;;;5028155;28;46012;-63
2022/03/19 05:21:06;;;;;;;61.10;30.40;;;1.80;65.90;;;;;;5030316;28;46333;-63
2022/03/19 05:23:34;;;;;;;51.80;26.58;;;1.90;66.00;;;;;;5030202;28;46397;-64
2022/03/19 05:25:59;;;;;;;48.65;27.02;;;1.80;65.90;;;;;;5028365;28;46612;-64
2022/03/19 05:28:26;;;;;;;56.43;26.80;;;1.80;65.90;;;;;;5028203;28;47092;-64
2022/03/19 05:30:57;;;;;;;56.15;27.83;;;1.80;65.80;;;;;;5032813;28;46372;-63
2022/03/19 05:36:07;;;;;;;52.42;27.23;;;1.90;65.70;;;;;;5032286;28;46425;-63
2022/03/19 05:38:33;;;;;;;46.30;24.93;;;1.80;65.40;;;;;;5029064;28;46439;-65
2022/03/19 05:40:59;;;;;;;50.03;25.90;;;1.80;65.40;;;;;;5033284;28;46496;-63
2022/03/19 05:43:24;;;;;;;60.80;28.20;;;1.80;65.30;;;;;;5034149;28;46315;-63
2022/03/19 05:45:50;;;;;;;55.30;27.40;;;1.90;65.30;;;;;;5033005;28;46581;-63
2022/03/19 05:48:16;;;;;;;49.22;23.48;;;1.90;65.10;;;;;;5027851;28;46414;-61
2022/03/19 05:50:42;;;;;;;47.33;24.87;;;2.00;64.90;;;;;;5032975;28;46609;-64
2022/03/19 05:53:07;;;;;;;56.00;26.80;;;2.00;64.70;;;;;;5032547;28;46450;-62
2022/03/19 05:55:33;;;;;;;54.53;25.80;;;2.10;64.60;;;;;;5027437;28;46365;-63
2022/03/19 05:57:58;;;;;;;54.90;27.57;;;2.10;64.30;;;;;;5030074;28;46444;-63
2022/03/19 06:00:24;;;;;;;54.73;25.27;;;2.10;64.20;;;;;;5028056;28;46406;-63
2022/03/19 06:02:49;;;;;;;46.97;24.40;;;2.10;64.20;;;;;;5032039;28;46232;-64
2022/03/19 06:05:15;;;;;;;43.10;23.40;;;2.20;64.20;;;;;;5032152;28;46346;-63
2022/03/19 06:07:40;;;;;;;42.73;23.87;;;2.40;64.50;;;;;;5030533;28;47248;-63
2022/03/19 06:10:07;;;;;;;49.67;24.67;;;2.50;64.10;;;;;;5028387;28;46383;-63
2022/03/19 06:12:33;;;;;;;47.33;23.48;;;2.40;63.80;;;;;;5026332;28;46399;-63
2022/03/19 06:14:59;;;;;;;44.50;23.95;;;2.40;63.70;;;;;;5034626;28;46675;-63
2022/03/19 06:17:25;;;;;;;41.90;22.13;;;2.40;63.60;;;;;;5030210;28;46560;-63
2022/03/19 06:19:50;;;;;;;48.27;23.80;;;2.40;63.30;;;;;;5028193;28;45883;-64
2022/03/19 06:22:16;;;;;;;43.63;23.07;;;2.50;63.20;;;;;;5034192;28;46286;-64
2022/03/19 06:24:41;;;;;;;53.60;24.53;;;2.50;63.10;;;;;;5033739;28;46379;-64
2022/03/19 06:27:07;;;;;;;43.50;23.50;;;2.50;62.90;;;;;;5030952;28;47545;-63
2022/03/19 06:29:33;;;;;;;48.13;24.63;;;2.60;62.80;;;;;;5029334;28;46395;-64
2022/03/19 06:31:59;;;;;;;43.03;24.33;;;2.70;62.40;;;;;;5028318;28;46388;-64
2022/03/19 06:34:24;;;;;;;41.20;23.70;;;2.80;62.30;;;;;;5027176;28;47771;-62
2022/03/19 06:39:34;;;;;;;44.00;21.33;;;3.00;61.80;;;;;;5025963;28;46532;-63
2022/03/19 06:42:00;;;;;;;45.20;24.23;;;3.10;61.50;;;;;;5032413;28;45838;-62
2022/03/19 06:44:26;;;;;;;39.87;20.73;;;3.20;62.40;;;;;;5032729;28;46526;-63
2022/03/19 06:46:51;;;;;;;38.30;20.73;;;3.30;61.10;;;;;;5030178;28;48013;-63
2022/03/19 06:49:17;;;;;;;41.40;20.83;;;3.40;60.80;;;;;;5037478;28;46414;-64
2022/03/19 06:51:42;;;;;;;35.77;20.83;;;3.50;60.30;;;;;;5036817;28;46501;-62
2022/03/19 06:54:08;;;;;;;39.53;20.20;;;3.50;59.90;;;;;;5030924;28;46485;-62
2022/03/19 06:56:34;;;;;;;35.13;17.63;;;3.60;60.00;;;;;;5030658;28;46508;-64
2022/03/19 06:58:59;;;;;;;46.43;22.33;;;3.80;60.00;;;;;;5031560;28;46459;-64
2022/03/19 07:01:25;;;;;;;40.70;21.10;;;3.90;59.50;;;;;;5033607;28;46257;-64
2022/03/19 07:03:50;;;;;;;36.60;19.40;;;4.00;59.00;;;;;;5034328;28;46646;-63
2022/03/19 07:06:18;;;;;;;35.50;20.80;;;4.00;58.60;;;;;;5030660;28;47298;-62
2022/03/19 07:08:44;;;;;;;32.88;19.30;;;4.20;58.30;;;;;;5030773;28;46762;-63
2022/03/19 07:11:10;;;;;;;38.85;20.80;;;4.20;57.50;;;;;;5032047;28;46489;-64
2022/03/19 07:13:36;;;;;;;38.10;20.13;;;4.30;57.20;;;;;;5035131;28;46390;-64
2022/03/19 07:16:02;;;;;;;33.83;19.37;;;4.40;56.80;;;;;;5033062;28;46314;-64
2022/03/19 07:18:27;;;;;;;36.40;19.53;;;4.50;55.30;;;;;;5031333;28;46333;-63
2022/03/19 07:20:53;;;;;;;33.80;16.87;;;4.60;54.10;;;;;;5030164;28;46513;-64
2022/03/19 07:23:19;;;;;;;30.27;16.50;;;4.70;53.80;;;;;;5031959;28;46604;-65
2022/03/19 07:25:45;;;;;;;35.27;17.83;;;4.70;53.00;;;;;;5026650;28;46368;-63
2022/03/19 07:28:17;;;;;;;31.73;17.10;;;4.80;52.70;;;;;;5033970;28;46266;-65
2022/03/19 07:30:43;;;;;;;35.93;19.10;;;4.90;52.60;;;;;;5033558;28;46505;-64
2022/03/19 07:33:09;;;;;;;34.37;18.30;;;4.90;52.10;;;;;;5036741;28;46503;-64
2022/03/19 07:35:35;;;;;;;31.87;17.57;;;5.00;51.70;;;;;;5036589;28;46252;-64
2022/03/19 07:38:02;;;;;;;35.93;18.33;;;5.10;51.00;;;;;;5027481;28;46201;-63
2022/03/19 07:43:13;;;;;;;36.63;18.40;;;5.00;50.00;;;;;;5029602;28;46465;-63
2022/03/19 07:45:41;;;;;;;34.03;17.90;;;5.00;49.80;;;;;;5027188;28;46398;-64
2022/03/19 07:48:07;;;;;;;35.10;18.40;;;5.20;49.80;;;;;;5026621;28;46471;-64
2022/03/19 07:50:33;;;;;;;30.30;16.53;;;5.30;48.60;;;;;;5024052;28;46562;-64
2022/03/19 07:53:00;;;;;;;32.53;16.37;;;5.40;48.70;;;;;;5022068;28;46567;-64
2022/03/19 07:55:26;;;;;;;30.80;16.47;;;5.50;48.80;;;;;;5031836;28;46044;-64
2022/03/19 07:57:52;;;;;;;31.40;16.97;;;5.60;48.20;;;;;;5036215;28;46366;-64
2022/03/19 08:00:18;;;;;;;34.00;18.33;;;5.70;47.70;;;;;;5038562;28;46494;-64
2022/03/19 08:02:44;;;;;;;32.63;17.30;;;5.90;47.10;;;;;;5030957;28;45915;-64
2022/03/19 08:05:11;;;;;;;29.83;15.70;;;6.00;46.70;;;;;;5032405;28;46477;-64
2022/03/19 08:07:37;;;;;;;28.33;17.20;;;5.90;45.60;;;;;;5030981;28;46358;-64
2022/03/19 08:10:07;;;;;;;33.70;18.67;;;5.90;45.00;;;;;;5031213;28;45809;-64
2022/03/19 08:12:35;;;;;;;34.63;17.10;;;6.00;45.50;;;;;;5028233;28;46318;-64
2022/03/19 08:15:06;;;;;;;29.10;16.57;;;6.10;44.50;;;;;;5030892;28;46438;-64
2022/03/19 08:17:32;;;;;;;36.50;16.37;;;6.30;44.40;;;;;;5032819;28;46363;-64
2022/03/19 08:19:59;;;;;;;32.73;17.10;;;6.30;43.80;;;;;;5027259;28;46510;-63
2022/03/19 08:22:25;;;;;;;33.60;17.10;;;6.30;43.30;;;;;;5027249;28;46508;-64
2022/03/19 08:24:52;;;;;;;32.47;16.60;;;6.50;43.30;;;;;;5030098;28;46481;-64
2022/03/19 08:27:18;;;;;;;28.50;16.30;;;6.40;42.40;;;;;;5029604;28;46366;-64
2022/03/19 08:29:43;;;;;;;29.13;14.93;;;6.40;42.30;;;;;;5034010;28;46367;-64
2022/03/19 08:32:10;;;;;;;33.40;16.43;;;6.50;41.90;;;;;;5029107;28;46467;-65
2022/03/19 08:34:36;;;;;;;33.93;17.63;;;6.70;41.80;;;;;;5030778;28;47307;-64
2022/03/19 08:37:02;;;;;;;32.77;15.33;;;6.90;42.00;;;;;;5027921;28;46259;-64
2022/03/19 08:42:12;;;;;;;31.43;15.37;;;6.90;40.40;;;;;;5025056;28;46284;-64
2022/03/19 08:44:37;;;;;;;33.53;15.57;;;6.90;40.00;;;;;;5026620;28;46509;-64
2022/03/19 08:47:03;;;;;;;30.00;16.17;;;7.10;39.40;;;;;;5028529;28;46398;-64
2022/03/19 08:49:29;;;;;;;31.53;16.00;;;7.20;37.40;;;;;;5032769;28;46542;-64
2022/03/19 08:51:55;;;;;;;29.53;16.40;;;7.30;37.10;;;;;;5030465;28;46625;-64
2022/03/19 08:54:21;;;;;;;27.17;15.93;;;7.30;37.50;;;;;;5030223;28;47199;-64
2022/03/19 08:56:49;;;;;;;27.70;15.67;;;7.50;37.90;;;;;;5030473;28;46429;-65
2022/03/19 08:59:16;;;;;;;25.90;15.10;;;7.40;37.20;;;;;;5028134;28;46275;-65
2022/03/19 09:01:42;;;;;;;30.03;15.73;;;7.40;36.10;;;;;;5029541;28;46482;-64
2022/03/19 09:04:09;;;;;;;28.40;16.23;;;7.30;36.40;;;;;;5034418;28;48140;-64
2022/03/19 09:06:35;;;;;;;29.57;16.50;;;7.20;36.10;;;;;;5028984;28;45756;-65
2022/03/19 09:09:02;;;;;;;28.60;16.30;;;7.40;36.40;;;;;;5032811;28;46581;-65
2022/03/19 09:11:28;;;;;;;33.37;16.20;;;7.50;36.30;;;;;;5029769;28;46493;-64
2022/03/19 09:13:54;;;;;;;28.10;15.80;;;7.40;36.20;;;;;;5032351;28;46556;-63
2022/03/19 09:16:20;;;;;;;26.90;15.37;;;7.60;36.10;;;;;;5031970;28;46411;-64
2022/03/19 09:18:46;;;;;;;34.10;16.93;;;7.60;34.80;;;;;;5030103;28;46478;-64
2022/03/19 09:21:12;;;;;;;28.37;17.23;;;7.60;35.40;;;;;;5030210;28;46559;-64
2022/03/19 09:23:37;;;;;;;31.90;17.97;;;7.60;35.30;;;;;;5030632;28;46561;-63
2022/03/19 09:26:03;;;;;;;27.77;16.23;;;7.80;35.50;;;;;;5029010;28;46367;-64
2022/03/19 09:28:38;;;;;;;33.43;16.97;;;7.80;35.40;;;;;;5196134;27;46412;-64
2022/03/19 09:31:04;;;;;;;34.47;17.33;;;7.80;34.70;;;;;;5164235;27;46400;-65
2022/03/19 09:33:29;;;;;;;40.07;16.70;;;8.00;34.90;;;;;;5154765;27;46380;-65
2022/03/19 09:35:57;;;;;;;28.30;16.63;;;8.20;34.60;;;;;;5141884;27;46535;-63
2022/03/19 09:38:23;;;;;;;29.53;16.00;;;8.40;34.40;;;;;;5140764;27;48698;-64
2022/03/19 09:40:49;;;;;;;30.27;15.20;;;8.50;34.30;;;;;;5141632;27;46403;-63
2022/03/19 09:43:15;;;;;;;29.23;16.23;;;8.50;33.40;;;;;;5160848;27;45857;-64
2022/03/19 09:45:41;;;;;;;31.70;15.60;;;8.50;33.10;;;;;;5145984;27;46418;-64
2022/03/19 09:48:07;;;;;;;28.40;14.80;;;8.50;33.00;;;;;;5145284;27;47173;-64
2022/03/19 09:50:36;;;;;;;31.63;15.80;;;8.50;33.00;;;;;;5161348;27;46406;-64
2022/03/19 09:53:04;;;;;;;30.00;16.77;;;8.50;32.50;;;;;;5143966;27;46349;-64
2022/03/19 09:55:30;;;;;;;33.13;17.10;;;8.70;32.90;;;;;;5140376;27;46751;-64
2022/03/19 09:57:57;;;;;;;31.70;16.93;;;8.80;31.60;;;;;;5141840;27;47711;-64
2022/03/19 10:00:24;;;;;;;31.83;16.50;;;8.80;30.90;;;;;;5140545;27;46531;-65
2022/03/19 10:03:01;;;;;;;33.70;16.13;;;8.60;31.30;;;;;;5157060;27;46269;-63
2022/03/19 10:08:35;;;;;;;26.97;15.43;;;8.70;31.60;;;;;;5158505;27;46423;-64
2022/03/19 10:11:12;;;;;;;29.90;16.23;;;8.80;31.40;;;;;;5140210;27;46462;-64
2022/03/19 10:13:40;;;;;;;30.23;16.77;;;8.90;30.50;;;;;;5159720;27;46454;-64
2022/03/19 10:16:07;;;;;;;26.43;14.90;;;8.90;30.20;;;;;;5141583;27;46501;-64
2022/03/19 10:18:32;;;;;;;27.57;17.13;;;8.90;30.70;;;;;;5160811;27;46293;-65
2022/03/19 10:21:15;;;;;;;33.33;18.20;;;8.80;30.40;;;;;;5139873;27;46649;-64
2022/03/19 10:23:42;;;;;;;27.33;16.63;;;8.80;29.90;;;;;;5157711;27;46581;-64
2022/03/19 10:26:21;;;;;;;28.20;16.27;;;8.80;30.20;;;;;;5141861;27;46281;-63
2022/03/19 10:29:05;;;;;;;29.80;17.43;;;8.90;29.20;;;;;;5146778;27;49165;-64
2022/03/19 10:31:33;;;;;;;30.33;17.50;;;9.00;29.00;;;;;;5158304;27;46435;-64
2022/03/19 10:34:00;;;;;;;29.00;13.50;;;9.10;30.00;;;;;;5140987;27;46326;-64
2022/03/19 10:36:45;;;;;;;29.80;17.13;;;9.20;28.20;;;;;;5141429;27;46330;-63
2022/03/19 10:39:26;;;;;;;28.70;15.63;;;9.10;28.10;;;;;;5149344;27;46432;-63
2022/03/19 10:41:53;;;;;;;27.53;15.60;;;9.20;27.40;;;;;;5141260;27;46665;-64
2022/03/19 10:44:24;;;;;;;34.50;17.93;;;9.10;27.70;;;;;;5146129;27;46390;-65
2022/03/19 10:46:54;;;;;;;22.23;14.63;;;9.20;26.60;;;;;;5141991;27;46353;-64
2022/03/19 10:49:22;;;;;;;33.03;16.67;;;9.30;26.40;;;;;;5127003;27;46418;-64
2022/03/19 10:51:49;;;;;;;24.27;15.33;;;9.20;26.30;;;;;;5126160;27;46385;-64
2022/03/19 10:54:16;;;;;;;26.07;15.10;;;9.30;26.60;;;;;;5121473;27;46661;-64
2022/03/19 10:56:43;;;;;;;27.40;15.10;;;9.30;26.40;;;;;;5123886;27;46402;-64
2022/03/19 10:59:09;;;;;;;27.60;16.17;;;9.30;26.40;;;;;;5143317;27;47198;-63
2022/03/19 11:01:36;;;;;;;26.53;14.40;;;9.50;26.60;;;;;;5125532;27;46611;-64
2022/03/19 11:04:04;;;;;;;30.47;15.47;;;9.50;25.80;;;;;;5125612;27;45817;-64
2022/03/19 11:06:34;;;;;;;32.17;15.37;;;9.60;25.40;;;;;;5126924;27;46425;-63
2022/03/19 11:09:06;;;;;;;28.47;15.30;;;9.60;25.10;;;;;;5124247;27;46292;-62
2022/03/19 11:11:44;;;;;;;23.47;13.63;;;9.60;24.70;;;;;;5124877;27;46366;-62
2022/03/19 11:14:12;;;;;;;24.13;14.83;;;9.50;24.60;;;;;;5123604;27;46309;-64
2022/03/19 11:16:41;;;;;;;28.13;16.07;;;9.60;24.70;;;;;;5139824;27;46304;-63
2022/03/19 11:19:09;;;;;;;23.50;14.07;;;9.70;24.60;;;;;;5124653;27;48857;-64
2022/03/19 11:21:38;;;;;;;27.03;15.73;;;9.80;24.90;;;;;;5144529;27;46300;-62
2022/03/19 11:24:15;;;;;;;24.47;14.10;;;9.90;25.70;;;;;;5124627;27;46451;-64
2022/03/19 11:26:41;;;;;;;32.07;18.40;;;10.10;24.40;;;;;;5123441;27;46451;-62
2022/03/19 11:29:07;;;;;;;30.40;17.27;;;10.10;24.00;;;;;;5125099;27;47922;-65
2022/03/19 11:31:36;;;;;;;29.07;16.87;;;10.00;24.50;;;;;;5125191;27;46466;-63
2022/03/19 11:34:22;;;;;;;28.57;16.60;;;9.80;25.50;;;;;;5124718;27;46382;-64
2022/03/19 11:37:00;;;;;;;25.83;16.00;;;9.90;25.50;;;;;;5123041;27;46421;-62
2022/03/19 11:39:27;;;;;;;31.23;17.53;;;9.80;24.80;;;;;;5118386;27;47852;-62
2022/03/19 11:41:54;;;;;;;30.73;16.57;;;9.90;25.00;;;;;;5124182;27;46512;-62
2022/03/19 11:44:31;;;;;;;31.90;18.23;;;9.80;24.80;;;;;;5124790;27;46256;-64
2022/03/19 11:47:02;;;;;;;29.50;18.40;;;9.90;25.30;;;;;;5139805;27;46535;-64
2022/03/19 11:49:48;;;;;;;34.43;18.87;;;9.90;25.20;;;;;;5142872;27;48765;-64
2022/03/19 11:52:26;;;;;;;32.40;19.03;;;9.70;25.50;;;;;;5141045;27;46464;-64
2022/03/19 11:55:03;;;;;;;33.90;18.10;;;9.70;25.90;;;;;;5125539;27;46785;-64
2022/03/19 11:57:56;;;;;;;33.70;20.50;;;9.80;26.10;;;;;;5121161;27;46496;-62
2022/03/19 12:00:27;;;;;;;31.50;16.30;;;9.80;26.00;;;;;;5124043;27;46277;-63
2022/03/19 12:03:12;;;;;;;41.73;18.50;;;9.90;25.30;;;;;;5124356;27;46455;-63
2022/03/19 12:05:44;;;;;;;31.50;18.00;;;10.00;25.30;;;;;;5124043;27;46435;-63
2022/03/19 12:08:12;;;;;;;34.10;20.03;;;10.30;25.10;;;;;;5123016;27;46271;-64
2022/03/19 12:11:01;;;;;;;38.07;21.70;;;10.30;24.70;;;;;;5143004;27;47222;-63
2022/03/19 12:13:26;;;;;;;34.03;19.03;;;10.20;24.70;;;;;;5141389;27;46384;-64
2022/03/19 12:15:56;;;;;;;32.47;18.70;;;10.20;24.80;;;;;;5124626;27;46318;-63
2022/03/19 12:18:22;;;;;;;32.10;19.47;;;10.00;24.70;;;;;;5138011;27;46407;-64
2022/03/19 12:20:49;;;;;;;36.77;18.67;;;10.10;24.90;;;;;;5124346;27;46577;-63
2022/03/19 12:23:15;;;;;;;34.50;19.17;;;10.10;24.70;;;;;;5143783;27;46321;-64
2022/03/19 12:25:44;;;;;;;39.70;21.07;;;9.90;25.50;;;;;;5142662;27;46449;-63
2022/03/19 12:28:16;;;;;;;36.67;19.93;;;9.90;25.40;;;;;;5123921;27;46731;-63
2022/03/19 12:30:44;;;;;;;34.80;18.40;;;10.00;24.50;;;;;;5122486;27;48281;-64
2022/03/19 12:33:10;;;;;;;31.43;19.27;;;9.90;25.40;;;;;;5126789;27;46303;-64
2022/03/19 12:35:45;;;;;;;31.63;18.77;;;10.00;24.90;;;;;;5123922;27;46416;-63
2022/03/19 12:38:27;;;;;;;35.10;17.90;;;10.00;24.80;;;;;;5122080;27;45946;-64
2022/03/19 12:43:38;;;;;;;38.70;19.70;;;10.30;24.60;;;;;;5144816;27;46234;-64
2022/03/19 12:46:05;;;;;;;34.70;19.97;;;10.50;24.20;;;;;;5126631;27;46489;-64
2022/03/19 12:48:31;;;;;;;32.13;18.80;;;10.80;23.40;;;;;;5122749;27;46512;-64
2022/03/19 12:50:57;;;;;;;32.90;18.23;;;10.90;23.10;;;;;;5125655;27;46700;-64
2022/03/19 12:53:33;;;;;;;32.67;20.00;;;10.90;22.80;;;;;;5125574;27;46369;-64
2022/03/19 12:56:22;;;;;;;33.43;18.70;;;10.90;22.60;;;;;;5124450;27;46416;-63